Time;durP1;ratioP1;P1;durP2;ratioP2;P2;SDS_P1;SDS_P2;PMS_P1;PMS_P2;Temp;Humidity;BMP_temperature;BMP_pressure;BME280_temperature;BME280_humidity;BME280_pressure;Samples;Min_cycle;Max_cycle;Signal;HPM_P1;HPM_P2
2023/01/09 00:00:52;;;;;;;5.40;2.60;;;5.80;97.30;;;;;;4990300;22;20268;-88
2023/01/09 00:03:31;;;;;;;2.40;2.20;;;5.80;97.30;;;;;;4991461;28;20182;-88
2023/01/09 00:06:02;;;;;;;1.60;1.50;;;5.70;97.30;;;;;;4991669;28;20417;-88
2023/01/09 00:08:31;;;;;;;1.30;1.20;;;5.60;97.30;;;;;;5006697;28;20467;-88
2023/01/09 00:11:03;;;;;;;1.80;1.60;;;5.60;97.30;;;;;;4991859;28;20460;-87
2023/01/09 00:13:31;;;;;;;2.50;2.30;;;5.40;97.30;;;;;;4972114;28;20425;-89
2023/01/09 00:16:12;;;;;;;3.37;1.77;;;5.30;97.30;;;;;;4970838;28;20422;-87
2023/01/09 00:18:41;;;;;;;6.13;2.63;;;5.30;97.30;;;;;;4970450;28;20775;-87
2023/01/09 00:21:32;;;;;;;1.10;1.00;;;5.20;97.30;;;;;;4971887;28;20432;-87
2023/01/09 00:24:01;;;;;;;5.80;2.80;;;5.20;97.30;;;;;;4971075;28;20485;-87
2023/01/09 00:26:33;;;;;;;2.70;1.60;;;5.10;97.30;;;;;;4971148;28;20526;-87
2023/01/09 00:29:01;;;;;;;2.30;1.97;;;5.10;97.30;;;;;;4970047;28;20938;-90
2023/01/09 00:31:33;;;;;;;1.93;1.83;;;5.10;97.30;;;;;;4972057;28;20446;-88
2023/01/09 00:34:22;;;;;;;2.00;1.90;;;5.20;97.30;;;;;;4975757;28;20417;-87
2023/01/09 00:37:41;;;;;;;1.10;1.00;;;5.20;97.30;;;;;;4971047;28;20540;-86
2023/01/09 00:41:15;;;;;;;3.13;1.83;;;5.20;97.30;;;;;;4956942;28;20469;-87
2023/01/09 00:44:02;;;;;;;1.73;1.60;;;5.30;97.30;;;;;;4975165;28;20431;-88
2023/01/09 00:46:51;;;;;;;4.30;2.10;;;5.30;97.30;;;;;;4957861;29;20466;-87
2023/01/09 00:50:03;;;;;;;4.27;2.27;;;5.40;97.30;;;;;;4974735;28;20432;-87
2023/01/09 00:52:41;;;;;;;1.90;1.50;;;5.40;97.30;;;;;;4973898;28;20424;-89
2023/01/09 00:55:22;;;;;;;1.97;1.87;;;5.50;97.30;;;;;;4974260;28;20418;-87
2023/01/09 00:58:20;;;;;;;1.67;1.57;;;5.60;97.30;;;;;;4973079;28;20920;-87
2023/01/09 01:00:52;;;;;;;1.70;1.60;;;5.60;97.30;;;;;;4969270;28;20609;-87
2023/01/09 01:03:21;;;;;;;1.53;1.43;;;5.60;97.30;;;;;;4971703;28;20774;-87
2023/01/09 01:09:02;;;;;;;1.50;1.40;;;5.70;97.30;;;;;;4975401;28;20629;-87
2023/01/09 01:11:51;;;;;;;1.50;1.40;;;5.70;97.30;;;;;;4974706;28;20525;-87
2023/01/09 01:14:41;;;;;;;2.03;1.90;;;5.60;97.30;;;;;;4970782;28;20781;-89
2023/01/09 01:17:12;;;;;;;1.63;1.53;;;5.60;97.30;;;;;;4967756;28;20517;-87
2023/01/09 01:19:41;;;;;;;1.50;1.40;;;5.50;97.30;;;;;;4973004;28;20976;-87
2023/01/09 01:22:23;;;;;;;1.50;1.40;;;5.40;97.30;;;;;;4973318;28;20764;-87
2023/01/09 01:24:51;;;;;;;3.83;1.90;;;5.40;97.30;;;;;;4973971;28;20505;-87
2023/01/09 01:27:22;;;;;;;1.20;1.10;;;5.40;97.30;;;;;;4973838;28;20464;-87
2023/01/09 01:30:21;;;;;;;1.73;1.63;;;5.40;97.30;;;;;;4973435;28;20430;-87
2023/01/09 01:32:51;;;;;;;1.20;1.10;;;5.40;97.30;;;;;;4954407;29;20968;-86
2023/01/09 01:35:31;;;;;;;9.20;3.00;;;5.40;97.30;;;;;;4963818;28;20488;-87
2023/01/09 01:38:22;;;;;;;1.30;1.20;;;5.40;97.30;;;;;;4973759;28;20513;-87
2023/01/09 01:41:11;;;;;;;3.37;1.27;;;5.40;97.30;;;;;;4968639;28;20649;-89
2023/01/09 01:44:02;;;;;;;1.87;1.77;;;5.40;97.30;;;;;;4964042;28;20422;-87
2023/01/09 01:47:03;;;;;;;;;;;;;;;;;;;;;
2023/01/09 01:49:32;;;;;;;1.77;1.20;;;5.40;97.30;;;;;;4972779;28;20448;-87
2023/01/09 01:52:41;;;;;;;1.37;1.27;;;5.50;97.30;;;;;;4971577;28;20476;-89
2023/01/09 01:55:42;;;;;;;1.50;1.40;;;5.60;97.30;;;;;;4972873;28;20568;-87
2023/01/09 01:58:21;;;;;;;1.87;1.73;;;5.60;97.30;;;;;;4970103;28;20441;-87
2023/01/09 02:00:53;;;;;;;3.10;2.90;;;5.60;97.30;;;;;;4972839;28;20534;-87
2023/01/09 02:03:32;;;;;;;1.37;1.30;;;5.60;97.30;;;;;;4972800;28;20442;-89
2023/01/09 02:06:03;;;;;;;1.80;1.70;;;5.60;97.30;;;;;;4973472;28;20560;-89
2023/01/09 02:08:32;;;;;;;3.23;2.13;;;5.70;97.30;;;;;;4972916;28;20512;-87
2023/01/09 02:11:13;;;;;;;1.40;1.30;;;5.70;97.30;;;;;;4980242;22;20541;-87
2023/01/09 02:13:42;;;;;;;1.20;1.10;;;5.70;97.30;;;;;;4973270;28;20468;-87
2023/01/09 02:16:41;;;;;;;1.60;1.50;;;5.70;97.30;;;;;;4972648;28;20412;-89
2023/01/09 02:22:22;;;;;;;1.93;1.83;;;5.80;97.30;;;;;;4996555;22;20489;-87
2023/01/09 02:25:22;;;;;;;1.37;1.27;;;5.80;97.30;;;;;;4989340;28;20424;-89
2023/01/09 02:28:12;;;;;;;1.87;1.80;;;5.90;97.30;;;;;;4993083;28;20475;-87
2023/01/09 02:38:20;;;;;;;2.70;2.47;;;5.90;97.30;;;;;;4890676;29;20844;-87
2023/01/09 02:41:42;;;;;;;4.77;1.87;;;6.00;97.30;;;;;;4922322;28;20786;-87
2023/01/09 02:43:43;;;;;;;2.97;1.63;;;6.00;97.30;;;;;;4947927;28;20783;-86
2023/01/09 02:46:32;;;;;;;2.30;1.60;;;6.00;97.30;;;;;;4952197;28;20450;-87
2023/01/09 02:49:21;;;;;;;1.97;1.83;;;6.00;97.30;;;;;;4946046;28;20466;-87
2023/01/09 02:52:33;;;;;;;2.00;1.90;;;6.00;97.30;;;;;;4944982;28;20822;-87
2023/01/09 02:55:32;;;;;;;2.40;2.20;;;6.00;97.30;;;;;;4907354;29;20505;-86
2023/01/09 02:58:32;;;;;;;3.67;2.77;;;6.00;97.30;;;;;;4913040;29;21011;-89
2023/01/09 03:01:10;;;;;;;2.33;2.13;;;6.10;97.30;;;;;;4913161;29;20528;-86
2023/01/09 03:04:09;;;;;;;1.80;1.70;;;6.10;97.30;;;;;;4933875;28;20500;-87
2023/01/09 03:07:02;;;;;;;3.83;1.87;;;6.10;97.30;;;;;;4979410;28;20498;-86
2023/01/09 03:09:36;;;;;;;1.73;1.63;;;6.10;97.30;;;;;;4974084;28;20640;-86
2023/01/09 03:12:15;;;;;;;1.37;1.27;;;6.20;97.30;;;;;;4970717;28;20410;-87
2023/01/09 03:14:44;;;;;;;3.73;2.30;;;6.20;97.30;;;;;;4970047;28;20519;-86
2023/01/09 03:17:13;;;;;;;2.23;2.03;;;6.20;97.30;;;;;;4971005;28;20476;-86
2023/01/09 03:19:40;;;;;;;1.30;1.20;;;6.20;97.30;;;;;;4970102;28;20477;-86
2023/01/09 03:22:07;;;;;;;2.30;1.63;;;6.30;97.30;;;;;;4970753;28;20823;-86
2023/01/09 03:24:32;;;;;;;1.40;1.30;;;6.30;97.30;;;;;;4971089;28;20430;-86
2023/01/09 03:26:58;;;;;;;1.67;1.30;;;6.30;97.30;;;;;;4970330;28;20517;-87
2023/01/09 03:29:23;;;;;;;1.30;1.20;;;6.40;97.30;;;;;;4978664;28;20629;-86
2023/01/09 03:31:50;;;;;;;2.60;2.40;;;6.40;97.30;;;;;;4988395;28;20174;-86
2023/01/09 03:34:15;;;;;;;1.40;1.30;;;6.40;97.30;;;;;;4987491;28;20228;-85
2023/01/09 03:36:41;;;;;;;2.10;1.43;;;6.50;97.30;;;;;;4981291;28;20844;-89
2023/01/09 03:39:06;;;;;;;2.23;2.03;;;6.50;97.30;;;;;;4990844;28;20285;-87
2023/01/09 03:41:32;;;;;;;1.57;1.47;;;6.50;97.30;;;;;;4973876;28;20257;-86
2023/01/09 03:43:57;;;;;;;1.00;0.90;;;6.50;97.30;;;;;;4970961;28;20186;-87
2023/01/09 03:46:23;;;;;;;2.00;1.83;;;6.50;97.30;;;;;;4971140;28;20210;-86
2023/01/09 03:48:48;;;;;;;1.63;1.23;;;6.60;97.30;;;;;;4969486;28;20181;-86
2023/01/09 03:51:14;;;;;;;4.50;2.70;;;6.60;97.30;;;;;;4970099;28;20221;-87
2023/01/09 03:53:40;;;;;;;1.77;1.67;;;6.60;97.30;;;;;;4990246;28;20633;-87
2023/01/09 03:56:05;;;;;;;2.33;2.17;;;6.60;97.30;;;;;;4990186;28;20182;-86
2023/01/09 03:58:31;;;;;;;2.13;1.90;;;6.60;97.30;;;;;;4990147;28;20425;-87
2023/01/09 04:00:59;;;;;;;1.10;1.00;;;6.60;97.30;;;;;;4982643;28;20206;-87
2023/01/09 04:03:24;;;;;;;2.50;1.37;;;6.60;97.30;;;;;;4969614;28;20190;-89
2023/01/09 04:05:50;;;;;;;1.43;1.33;;;6.60;97.30;;;;;;4970905;28;20514;-88
2023/01/09 04:08:16;;;;;;;1.17;1.07;;;6.60;97.30;;;;;;4970849;28;20225;-87
2023/01/09 04:10:46;;;;;;;1.60;1.50;;;6.60;97.30;;;;;;4995375;23;20245;-87
2023/01/09 04:13:11;;;;;;;1.00;0.90;;;6.60;97.30;;;;;;4973669;28;20427;-88
2023/01/09 04:15:37;;;;;;;1.40;1.30;;;6.70;97.30;;;;;;4974071;28;20606;-86
2023/01/09 04:18:05;;;;;;;1.50;1.40;;;6.70;97.30;;;;;;4966450;28;20556;-86
2023/01/09 04:20:31;;;;;;;2.47;2.03;;;6.70;97.30;;;;;;4932207;29;20620;-91
2023/01/09 04:22:58;;;;;;;2.40;2.20;;;6.70;97.30;;;;;;4933741;29;20416;-86
2023/01/09 04:25:24;;;;;;;2.43;2.23;;;6.70;97.30;;;;;;4943057;29;20179;-86
2023/01/09 04:27:49;;;;;;;1.57;1.50;;;6.70;97.30;;;;;;4932917;29;20459;-87
2023/01/09 04:30:15;;;;;;;1.17;1.10;;;6.70;97.30;;;;;;4944623;29;20439;-86
2023/01/09 04:32:40;;;;;;;1.40;1.30;;;6.70;97.30;;;;;;4926693;29;20194;-87
2023/01/09 04:35:06;;;;;;;11.23;1.83;;;6.70;97.30;;;;;;4930227;29;20586;-86
2023/01/09 04:37:32;;;;;;;1.50;1.40;;;6.80;97.30;;;;;;4934890;29;20186;-88
2023/01/09 04:39:57;;;;;;;1.53;1.50;;;6.80;97.30;;;;;;4936472;28;21014;-88
2023/01/09 04:42:23;;;;;;;1.50;1.40;;;6.80;97.30;;;;;;4953432;28;20175;-85
2023/01/09 04:44:52;;;;;;;1.37;1.37;;;6.80;97.30;;;;;;4936323;29;20186;-88
2023/01/09 04:47:18;;;;;;;1.40;1.30;;;6.80;97.30;;;;;;4951102;28;20205;-88
2023/01/09 04:49:44;;;;;;;1.30;1.20;;;6.80;97.30;;;;;;4955836;28;20414;-86
2023/01/09 04:52:09;;;;;;;1.40;1.30;;;6.80;97.30;;;;;;4956070;28;20417;-86
2023/01/09 04:54:34;;;;;;;1.30;1.20;;;6.80;97.30;;;;;;4955904;28;20195;-86
2023/01/09 04:57:00;;;;;;;2.57;1.43;;;6.80;97.30;;;;;;4973394;28;20186;-84
2023/01/09 04:59:25;;;;;;;1.67;1.60;;;6.80;97.30;;;;;;4955868;28;20696;-86
2023/01/09 05:01:53;;;;;;;1.23;1.00;;;6.80;97.30;;;;;;4952412;28;20282;-84
2023/01/09 05:04:18;;;;;;;1.30;1.20;;;6.80;97.30;;;;;;4936678;29;20273;-86
2023/01/09 05:06:44;;;;;;;1.50;1.40;;;6.80;97.30;;;;;;4946222;29;21182;-85
2023/01/09 05:09:09;;;;;;;4.80;1.93;;;6.80;97.30;;;;;;4928406;29;20176;-88
2023/01/09 05:11:35;;;;;;;1.10;1.00;;;6.80;97.30;;;;;;4933452;29;20230;-86
2023/01/09 05:14:00;;;;;;;1.40;1.30;;;6.80;97.30;;;;;;4934760;29;20219;-86
2023/01/09 05:16:26;;;;;;;2.40;2.20;;;6.80;97.30;;;;;;4934674;28;20175;-88
2023/01/09 05:18:55;;;;;;;1.17;1.07;;;6.80;97.30;;;;;;4938007;29;20183;-86
2023/01/09 05:21:21;;;;;;;1.73;1.30;;;6.80;97.30;;;;;;4941293;28;20565;-86
2023/01/09 05:23:47;;;;;;;1.23;1.20;;;6.80;97.30;;;;;;4974378;28;20417;-86
2023/01/09 05:26:12;;;;;;;1.37;1.27;;;6.80;97.30;;;;;;4973892;28;20794;-88
2023/01/09 05:28:38;;;;;;;1.60;1.50;;;6.70;97.30;;;;;;4973852;28;20225;-86
2023/01/09 05:31:03;;;;;;;1.67;1.57;;;6.70;97.30;;;;;;4974369;28;20215;-86
2023/01/09 05:33:29;;;;;;;1.70;1.60;;;6.70;97.30;;;;;;4956067;28;20217;-87
2023/01/09 05:35:54;;;;;;;1.70;1.63;;;6.70;97.30;;;;;;4958683;28;20194;-86
2023/01/09 05:38:20;;;;;;;2.23;2.03;;;6.70;97.30;;;;;;4951069;28;20194;-88
2023/01/09 05:40:45;;;;;;;1.10;1.00;;;6.70;97.30;;;;;;4956792;28;20209;-86
2023/01/09 05:43:11;;;;;;;1.90;1.80;;;6.70;97.30;;;;;;4947660;29;20192;-88
2023/01/09 05:45:36;;;;;;;1.20;1.10;;;6.70;97.30;;;;;;4969871;29;20199;-91
2023/01/09 05:48:02;;;;;;;1.47;1.40;;;6.70;97.30;;;;;;4951521;29;20213;-86
2023/01/09 05:50:28;;;;;;;1.30;1.20;;;6.60;97.30;;;;;;4935978;29;20199;-91
2023/01/09 05:52:53;;;;;;;1.47;1.17;;;6.70;97.30;;;;;;4936267;29;20275;-86
2023/01/09 05:55:19;;;;;;;1.43;1.43;;;6.70;97.30;;;;;;4936108;29;20538;-87
2023/01/09 05:57:44;;;;;;;1.40;1.30;;;6.70;97.30;;;;;;4936239;29;20219;-92
2023/01/09 06:00:15;;;;;;;2.53;2.40;;;6.70;97.30;;;;;;4958264;28;20210;-90
2023/01/09 06:02:41;;;;;;;1.33;1.23;;;6.70;97.30;;;;;;4951141;29;20175;-91
2023/01/09 06:05:07;;;;;;;1.13;1.03;;;6.80;97.30;;;;;;4952141;29;20423;-89
2023/01/09 06:07:35;;;;;;;5.63;2.07;;;6.80;97.30;;;;;;4952410;29;20217;-86
2023/01/09 06:10:00;;;;;;;1.43;1.30;;;6.80;97.30;;;;;;4963040;28;20427;-85
2023/01/09 06:12:26;;;;;;;1.00;0.90;;;6.80;97.30;;;;;;4937587;29;20427;-87
2023/01/09 06:14:51;;;;;;;1.77;1.70;;;6.80;97.30;;;;;;4937443;29;20266;-89
2023/01/09 06:17:17;;;;;;;11.60;1.97;;;6.90;97.30;;;;;;4937155;29;20250;-86
2023/01/09 06:19:42;;;;;;;1.50;1.40;;;6.90;97.30;;;;;;4937102;28;20270;-85
2023/01/09 06:22:08;;;;;;;3.30;1.27;;;6.90;97.30;;;;;;4953904;29;20175;-88
2023/01/09 06:24:35;;;;;;;2.90;2.70;;;6.90;97.30;;;;;;4937219;29;20187;-87
2023/01/09 06:27:01;;;;;;;1.53;1.53;;;7.00;97.30;;;;;;4936695;29;20222;-87
2023/01/09 06:29:26;;;;;;;1.63;1.60;;;7.00;97.30;;;;;;4936237;29;20454;-87
2023/01/09 06:31:52;;;;;;;1.87;1.70;;;7.00;97.30;;;;;;4936696;29;20195;-87
2023/01/09 06:34:17;;;;;;;1.67;1.57;;;7.00;97.30;;;;;;4936977;29;20334;-89
2023/01/09 06:36:43;;;;;;;1.50;1.40;;;7.00;97.30;;;;;;4953847;28;20182;-87
2023/01/09 06:39:08;;;;;;;0.97;0.87;;;7.00;97.30;;;;;;4936722;29;20182;-87
2023/01/09 06:44:29;;;;;;;1.00;1.00;;;7.10;97.30;;;;;;4933331;29;20195;-86
2023/01/09 06:47:48;;;;;;;1.20;1.10;;;7.10;97.30;;;;;;4934854;29;20459;-87
2023/01/09 06:50:58;;;;;;;3.03;2.50;;;7.10;97.30;;;;;;4875869;29;20534;-88
2023/01/09 06:56:38;;;;;;;1.80;1.37;;;7.10;97.30;;;;;;4893757;29;20425;-87
2023/01/09 06:59:38;;;;;;;2.10;1.63;;;7.10;97.30;;;;;;4878536;29;20441;-87
2023/01/09 07:02:38;;;;;;;1.47;1.37;;;7.10;97.30;;;;;;4973882;23;20492;-88
2023/01/09 07:08:38;;;;;;;1.40;1.37;;;7.10;97.30;;;;;;4893409;29;20481;-89
2023/01/09 07:11:39;;;;;;;1.80;1.70;;;7.20;97.30;;;;;;4962819;23;21069;-87
2023/01/09 07:14:17;;;;;;;1.47;1.37;;;7.20;97.30;;;;;;4971501;28;20865;-87
2023/01/09 07:16:48;;;;;;;1.20;1.10;;;7.20;97.30;;;;;;4971332;28;20418;-89
2023/01/09 07:22:18;;;;;;;7.20;2.20;;;7.20;97.30;;;;;;5008960;23;20501;-87
2023/01/09 07:24:46;;;;;;;4.20;4.00;;;7.20;97.30;;;;;;4974783;28;20488;-87
2023/01/09 07:27:12;;;;;;;2.40;1.70;;;7.20;97.30;;;;;;4974196;28;20842;-87
2023/01/09 07:29:37;;;;;;;1.40;1.30;;;7.20;97.30;;;;;;4974240;28;20417;-88
2023/01/09 07:32:03;;;;;;;2.07;1.40;;;7.30;97.30;;;;;;4974408;28;20248;-87
2023/01/09 07:34:29;;;;;;;1.87;1.83;;;7.30;97.30;;;;;;4974283;28;20645;-87
2023/01/09 07:36:54;;;;;;;1.10;1.00;;;7.40;97.30;;;;;;4974639;28;20178;-89
2023/01/09 07:39:20;;;;;;;1.20;1.10;;;7.40;97.30;;;;;;4974427;28;20207;-87
2023/01/09 07:41:45;;;;;;;2.03;1.80;;;7.40;97.30;;;;;;4974192;28;20205;-88
2023/01/09 07:44:12;;;;;;;5.33;1.40;;;7.50;97.30;;;;;;4974187;28;20615;-86
2023/01/09 07:46:38;;;;;;;1.10;1.00;;;7.50;97.30;;;;;;4974529;28;20350;-86
2023/01/09 07:49:03;;;;;;;1.30;1.20;;;7.50;97.30;;;;;;4974303;28;20776;-87
2023/01/09 07:51:29;;;;;;;1.00;0.90;;;7.50;97.30;;;;;;4974037;28;20440;-87
2023/01/09 07:53:54;;;;;;;1.30;1.20;;;7.50;97.30;;;;;;4974079;28;20177;-87
2023/01/09 07:56:20;;;;;;;2.63;1.90;;;7.50;97.30;;;;;;4991625;28;20177;-89
2023/01/09 07:58:45;;;;;;;1.10;1.00;;;7.60;97.30;;;;;;4974732;28;20268;-87
2023/01/09 08:01:11;;;;;;;2.40;2.13;;;7.60;97.30;;;;;;4974050;28;20206;-87
2023/01/09 08:03:37;;;;;;;1.47;1.40;;;7.60;97.30;;;;;;4991790;28;20229;-87
2023/01/09 08:06:03;;;;;;;1.10;1.00;;;7.60;97.30;;;;;;4974263;28;20181;-87
2023/01/09 08:08:29;;;;;;;0.90;0.80;;;7.70;97.30;;;;;;4974079;28;20490;-91
2023/01/09 08:10:54;;;;;;;0.97;0.87;;;7.70;97.30;;;;;;4974101;28;20194;-87
2023/01/09 08:13:20;;;;;;;1.20;1.10;;;7.70;97.30;;;;;;4974169;28;20293;-87
2023/01/09 08:15:46;;;;;;;1.00;0.90;;;7.80;97.30;;;;;;4973993;28;20214;-88
2023/01/09 08:18:11;;;;;;;2.13;1.80;;;7.80;97.30;;;;;;4974073;28;20182;-88
2023/01/09 08:20:37;;;;;;;7.73;1.53;;;7.80;97.30;;;;;;4973718;28;20226;-88
2023/01/09 08:23:02;;;;;;;4.00;2.03;;;7.80;97.30;;;;;;4973114;28;20596;-87
2023/01/09 08:25:28;;;;;;;2.63;1.83;;;7.90;97.30;;;;;;4973696;28;20189;-87
2023/01/09 08:27:53;;;;;;;4.03;3.17;;;7.90;97.30;;;;;;4991574;28;20268;-88
2023/01/09 08:30:19;;;;;;;1.73;1.63;;;7.90;97.30;;;;;;4973832;28;20280;-87
2023/01/09 08:32:53;;;;;;;2.90;2.70;;;8.00;97.30;;;;;;4973859;28;20189;-86
2023/01/09 08:35:19;;;;;;;3.63;1.60;;;8.00;97.30;;;;;;4970730;28;20179;-90
2023/01/09 08:37:46;;;;;;;1.10;1.00;;;8.00;97.30;;;;;;4972168;28;20764;-87
2023/01/09 08:40:12;;;;;;;1.23;1.13;;;8.10;97.30;;;;;;4972191;28;20434;-87
2023/01/09 08:48:06;;;;;;;1.90;1.80;;;8.10;97.30;;;;;;4971627;28;20512;-87
2023/01/09 08:50:32;;;;;;;2.03;1.90;;;8.20;97.30;;;;;;4970337;28;20439;-88
2023/01/09 08:52:57;;;;;;;1.20;0.93;;;8.20;97.30;;;;;;4972988;28;20199;-89
2023/01/09 08:55:23;;;;;;;0.97;0.87;;;8.20;97.30;;;;;;4974515;28;20436;-86
2023/01/09 08:57:50;;;;;;;4.53;1.27;;;8.20;97.30;;;;;;4974681;28;20277;-88
2023/01/09 09:00:17;;;;;;;3.70;2.37;;;8.30;97.30;;;;;;4975859;28;20199;-89
2023/01/09 09:02:43;;;;;;;1.00;0.90;;;8.40;97.30;;;;;;4979487;28;20513;-86
2023/01/09 09:05:08;;;;;;;1.00;0.90;;;8.40;97.30;;;;;;4975284;28;20476;-91
2023/01/09 09:07:34;;;;;;;1.10;1.00;;;8.40;97.30;;;;;;4974567;28;20621;-86
2023/01/09 09:09:59;;;;;;;1.00;0.90;;;8.40;97.30;;;;;;4974074;28;20668;-87
2023/01/09 09:12:25;;;;;;;1.00;0.90;;;8.50;97.30;;;;;;4974301;28;20232;-89
2023/01/09 09:17:34;;;;;;;1.03;0.93;;;8.50;97.30;;;;;;4975819;28;20190;-87
2023/01/09 09:20:00;;;;;;;1.10;1.00;;;8.60;97.30;;;;;;4974177;28;20449;-86
2023/01/09 09:22:26;;;;;;;0.90;0.80;;;8.60;97.30;;;;;;4975352;28;20197;-86
2023/01/09 09:24:51;;;;;;;1.00;0.90;;;8.60;97.30;;;;;;4974740;28;20354;-87
2023/01/09 09:27:17;;;;;;;1.40;1.30;;;8.60;97.30;;;;;;4975335;28;20465;-87
2023/01/09 09:29:44;;;;;;;1.10;1.00;;;8.60;97.30;;;;;;4973747;28;20236;-87
2023/01/09 09:32:10;;;;;;;0.90;0.80;;;8.60;97.30;;;;;;4973675;28;20329;-89
2023/01/09 09:34:35;;;;;;;1.20;1.10;;;8.70;97.30;;;;;;4976985;28;21019;-87
2023/01/09 09:37:00;;;;;;;1.00;0.90;;;8.70;97.30;;;;;;4977099;28;20221;-89
2023/01/09 09:39:26;;;;;;;1.00;0.90;;;8.80;97.30;;;;;;4985106;28;20185;-88
2023/01/09 09:44:52;;;;;;;0.90;0.80;;;8.90;97.30;;;;;;4998208;28;20235;-89
2023/01/09 09:47:21;;;;;;;1.00;0.90;;;9.00;97.30;;;;;;4964866;28;20465;-86
2023/01/09 09:50:22;;;;;;;0.90;0.80;;;9.00;97.30;;;;;;4956404;28;20414;-88
2023/01/09 09:52:56;;;;;;;0.80;0.70;;;9.00;97.30;;;;;;4957037;28;20920;-87
2023/01/09 09:55:33;;;;;;;1.10;1.00;;;9.00;97.30;;;;;;4957605;28;20449;-91
2023/01/09 09:58:03;;;;;;;1.10;1.00;;;8.90;97.30;;;;;;4958407;28;20924;-87
2023/01/09 10:00:29;;;;;;;0.90;0.80;;;9.00;97.30;;;;;;4957691;28;20434;-87
2023/01/09 10:03:26;;;;;;;0.90;0.80;;;9.10;97.30;;;;;;4957915;28;20464;-87
2023/01/09 10:05:53;;;;;;;1.10;1.00;;;9.10;97.30;;;;;;4957744;28;20440;-87
2023/01/09 10:08:46;;;;;;;1.17;1.07;;;9.20;97.30;;;;;;4958042;28;20468;-90
2023/01/09 10:11:17;;;;;;;0.90;0.80;;;9.20;97.30;;;;;;4984264;23;21035;-86
2023/01/09 10:16:52;;;;;;;1.00;0.90;;;9.30;97.30;;;;;;4974191;28;20410;-87
2023/01/09 10:19:47;;;;;;;1.10;1.00;;;9.20;97.30;;;;;;4972112;28;20406;-87
2023/01/09 10:22:28;;;;;;;0.90;0.80;;;9.30;97.30;;;;;;4943304;29;20439;-87
2023/01/09 10:25:12;;;;;;;1.00;0.90;;;9.40;97.30;;;;;;4953399;29;20967;-87
2023/01/09 10:28:13;;;;;;;2.00;1.00;;;9.50;97.30;;;;;;4952883;29;20447;-88
2023/01/09 10:30:59;;;;;;;0.97;0.87;;;9.50;97.30;;;;;;4968640;28;20438;-87
2023/01/09 10:33:29;;;;;;;0.93;0.83;;;9.40;97.30;;;;;;4969125;28;20415;-88
2023/01/09 10:36:16;;;;;;;1.40;1.30;;;9.40;97.30;;;;;;4949786;29;20419;-87
2023/01/09 10:38:46;;;;;;;0.90;0.80;;;9.40;97.30;;;;;;4934828;29;20529;-87
2023/01/09 10:41:26;;;;;;;1.13;1.03;;;9.40;97.30;;;;;;4949384;28;20439;-86
2023/01/09 10:43:58;;;;;;;0.93;0.83;;;9.40;97.30;;;;;;4949626;29;20475;-87
2023/01/09 10:46:27;;;;;;;1.00;0.90;;;9.50;97.30;;;;;;4950027;29;20411;-87
2023/01/09 10:48:58;;;;;;;0.90;0.80;;;9.50;97.30;;;;;;4934898;29;20821;-88
2023/01/09 10:51:49;;;;;;;1.00;0.90;;;9.50;97.30;;;;;;4949314;28;20442;-84
2023/01/09 10:54:18;;;;;;;2.40;1.17;;;9.50;97.30;;;;;;4942752;29;20416;-87
2023/01/09 10:56:52;;;;;;;1.00;0.90;;;9.50;97.30;;;;;;4949790;29;20958;-85
2023/01/09 10:59:18;;;;;;;0.90;0.80;;;9.60;97.30;;;;;;4949601;29;20950;-87
2023/01/09 11:01:43;;;;;;;1.00;0.90;;;9.60;97.30;;;;;;4949311;28;20436;-85
2023/01/09 11:04:38;;;;;;;1.00;0.90;;;9.70;97.30;;;;;;4933712;29;20180;-87
2023/01/09 11:07:17;;;;;;;2.73;1.43;;;9.80;97.30;;;;;;4932939;29;20208;-85
2023/01/09 11:10:06;;;;;;;1.33;1.30;;;9.80;97.30;;;;;;4933058;29;20424;-84
2023/01/09 11:12:33;;;;;;;0.90;0.80;;;9.60;97.10;;;;;;4932819;29;20475;-88
2023/01/09 11:15:20;;;;;;;1.00;0.90;;;9.70;97.30;;;;;;4932290;29;20499;-88
2023/01/09 11:17:46;;;;;;;0.80;0.70;;;9.90;97.30;;;;;;4935213;29;20465;-87
2023/01/09 11:20:14;;;;;;;1.13;1.03;;;10.10;97.30;;;;;;4951047;28;20411;-87
2023/01/09 11:22:46;;;;;;;1.00;0.90;;;10.20;97.20;;;;;;4953205;28;20928;-87
2023/01/09 11:25:13;;;;;;;1.00;0.90;;;10.20;96.10;;;;;;4950960;29;20426;-87
2023/01/09 11:27:39;;;;;;;1.00;0.90;;;10.20;95.80;;;;;;4952076;29;20454;-88
2023/01/09 11:30:19;;;;;;;0.97;0.87;;;10.10;95.70;;;;;;4954141;29;20446;-87
2023/01/09 11:32:45;;;;;;;1.00;0.90;;;10.00;96.00;;;;;;4951995;29;20595;-85
2023/01/09 11:35:19;;;;;;;0.90;0.80;;;10.00;95.70;;;;;;4952013;29;20427;-88
2023/01/09 11:37:45;;;;;;;1.00;0.90;;;10.00;95.50;;;;;;4952340;29;20505;-87
2023/01/09 11:40:19;;;;;;;1.00;0.90;;;10.10;95.90;;;;;;4953448;28;20407;-88
2023/01/09 11:43:29;;;;;;;0.90;0.80;;;10.10;95.80;;;;;;4952368;29;20797;-87
2023/01/09 11:45:56;;;;;;;2.23;1.20;;;10.20;95.40;;;;;;4874606;29;20513;-86
2023/01/09 11:48:57;;;;;;;0.90;0.80;;;10.20;95.30;;;;;;4954351;28;20872;-87
2023/01/09 11:51:26;;;;;;;1.00;0.90;;;10.20;95.70;;;;;;4951730;29;20446;-87
2023/01/09 11:54:27;;;;;;;1.40;1.30;;;10.20;95.30;;;;;;4952973;28;20403;-88
2023/01/09 11:56:54;;;;;;;2.33;2.13;;;10.30;95.70;;;;;;4951653;29;20414;-85
2023/01/09 11:59:27;;;;;;;5.30;1.50;;;10.30;95.50;;;;;;4951770;29;20407;-86
2023/01/09 12:02:16;;;;;;;0.90;0.80;;;10.40;95.50;;;;;;4951731;29;20538;-88
2023/01/09 12:05:30;;;;;;;1.37;1.27;;;10.50;95.40;;;;;;4952016;29;20544;-87
2023/01/09 12:08:31;;;;;;;0.90;0.80;;;10.50;95.00;;;;;;4943085;29;20465;-85
2023/01/09 12:11:18;;;;;;;1.77;1.17;;;10.20;95.40;;;;;;4951146;29;20478;-86
2023/01/09 12:14:02;;;;;;;1.37;1.00;;;10.00;96.20;;;;;;4951658;29;20877;-85
2023/01/09 12:16:44;;;;;;;1.10;1.00;;;9.70;96.80;;;;;;4951171;29;20411;-87
2023/01/09 12:19:36;;;;;;;1.10;1.00;;;9.60;97.20;;;;;;4951461;29;20429;-86
2023/01/09 12:22:37;;;;;;;0.90;0.80;;;9.70;97.30;;;;;;4950604;29;20451;-86
2023/01/09 12:25:19;;;;;;;1.30;1.20;;;9.70;97.30;;;;;;4954383;28;20484;-85
2023/01/09 12:28:00;;;;;;;3.47;1.20;;;9.50;97.10;;;;;;4954715;28;20462;-87
2023/01/09 12:30:32;;;;;;;1.70;1.70;;;9.40;97.30;;;;;;4955573;28;20933;-87
2023/01/09 12:33:41;;;;;;;0.97;0.87;;;9.40;97.30;;;;;;4955260;29;20422;-87
2023/01/09 12:36:15;;;;;;;1.17;1.10;;;9.30;97.30;;;;;;4954570;29;20514;-87
2023/01/09 12:38:48;;;;;;;1.00;0.90;;;9.20;97.30;;;;;;4955226;29;20497;-86
2023/01/09 12:41:32;;;;;;;0.90;0.80;;;9.20;97.30;;;;;;4955377;29;20837;-88
2023/01/09 12:44:16;;;;;;;1.20;1.10;;;9.20;97.30;;;;;;4955788;29;20489;-87
2023/01/09 12:47:01;;;;;;;1.20;1.10;;;9.30;97.30;;;;;;4955396;29;20426;-87
2023/01/09 12:49:34;;;;;;;1.00;0.90;;;9.30;97.30;;;;;;4955738;28;20477;-86
2023/01/09 12:52:09;;;;;;;1.37;1.27;;;9.30;97.30;;;;;;4955946;29;20486;-87
2023/01/09 12:54:58;;;;;;;0.90;0.80;;;9.30;97.30;;;;;;4971176;28;20424;-88
2023/01/09 12:57:34;;;;;;;1.00;0.90;;;9.40;97.30;;;;;;4955416;29;20428;-87
2023/01/09 13:00:03;;;;;;;1.40;1.30;;;9.70;97.30;;;;;;4969785;28;20473;-87
2023/01/09 13:02:41;;;;;;;1.10;1.00;;;10.20;96.90;;;;;;4955769;29;20444;-86
2023/01/09 13:05:25;;;;;;;0.90;0.80;;;10.50;95.80;;;;;;4954728;29;20461;-86
2023/01/09 13:07:55;;;;;;;1.00;0.90;;;10.80;95.30;;;;;;4952734;29;20451;-86
2023/01/09 13:10:35;;;;;;;1.03;0.93;;;11.00;94.40;;;;;;4954913;28;20441;-88
2023/01/09 13:13:15;;;;;;;1.00;0.90;;;11.30;93.90;;;;;;4968539;28;20450;-88
2023/01/09 13:15:46;;;;;;;0.90;0.80;;;11.50;93.80;;;;;;4951838;29;20414;-88
2023/01/09 13:18:34;;;;;;;0.90;0.80;;;11.60;92.50;;;;;;4953616;29;20451;-87
2023/01/09 13:21:00;;;;;;;0.97;0.87;;;11.30;93.40;;;;;;4952953;29;21049;-87
2023/01/09 13:23:40;;;;;;;1.00;0.90;;;10.80;94.20;;;;;;4953340;29;20509;-88
2023/01/09 13:26:13;;;;;;;0.87;0.77;;;10.30;95.10;;;;;;4969170;28;20419;-88
2023/01/09 13:28:55;;;;;;;1.00;0.90;;;9.90;96.00;;;;;;4956256;29;20497;-88
2023/01/09 13:31:27;;;;;;;0.90;0.80;;;9.70;96.70;;;;;;4969587;28;20519;-87
2023/01/09 13:33:56;;;;;;;0.90;0.80;;;9.90;96.80;;;;;;4952877;29;20482;-85
2023/01/09 13:36:29;;;;;;;0.97;0.87;;;10.00;97.20;;;;;;4952279;29;20800;-85
2023/01/09 13:38:56;;;;;;;0.80;0.70;;;10.00;97.30;;;;;;4954376;28;20438;-86
2023/01/09 13:44:27;;;;;;;0.90;0.80;;;9.80;97.30;;;;;;4954633;29;20418;-87
2023/01/09 13:46:58;;;;;;;0.90;0.80;;;9.90;97.30;;;;;;4953267;29;20423;-86
2023/01/09 13:49:32;;;;;;;6.43;1.00;;;10.20;97.30;;;;;;4953267;29;20455;-87
2023/01/09 13:52:00;;;;;;;1.93;0.90;;;10.60;97.20;;;;;;4953065;29;20431;-87
2023/01/09 13:54:53;;;;;;;1.03;0.93;;;10.70;95.90;;;;;;4953039;29;20922;-87
2023/01/09 13:57:19;;;;;;;0.90;0.80;;;10.80;95.50;;;;;;4949343;29;20517;-86
2023/01/09 13:59:46;;;;;;;0.90;0.80;;;10.50;95.30;;;;;;4952371;29;20506;-86
2023/01/09 14:02:34;;;;;;;7.80;1.73;;;10.10;96.60;;;;;;4969453;28;20210;-85
2023/01/09 14:05:00;;;;;;;0.90;0.80;;;9.80;97.30;;;;;;4969411;28;20417;-87
2023/01/09 14:07:31;;;;;;;0.90;0.80;;;9.70;97.30;;;;;;4954662;28;20887;-85
2023/01/09 14:09:59;;;;;;;1.40;1.30;;;9.90;97.30;;;;;;4969774;28;20415;-85
2023/01/09 14:12:28;;;;;;;1.00;0.90;;;10.00;96.80;;;;;;4969128;28;20470;-87
2023/01/09 14:14:57;;;;;;;1.87;1.30;;;10.10;96.80;;;;;;4969275;28;20424;-85
2023/01/09 14:17:35;;;;;;;0.90;0.80;;;10.20;96.10;;;;;;4968535;28;20431;-87